createdAt,value
2022-08-07T00:00:51.320Z,948.2
2022-08-07T00:02:44.829Z,948.3
2022-08-07T00:03:47.859Z,948.3
2022-08-07T00:04:50.825Z,948.3
2022-08-07T00:05:54.433Z,948.3
2022-08-07T00:07:09.465Z,948.3
2022-08-07T00:08:14.829Z,948.3
2022-08-07T00:09:35.468Z,948.3
2022-08-07T00:10:58.287Z,948.3
2022-08-07T00:12:00.379Z,948.3
2022-08-07T00:13:27.165Z,948.3
2022-08-07T00:14:31.868Z,948.3
2022-08-07T00:15:51.472Z,948.3
2022-08-07T00:16:53.480Z,948.3
2022-08-07T00:17:55.142Z,948.3
2022-08-07T00:18:56.870Z,948.3
2022-08-07T00:20:03.841Z,948.3
2022-08-07T00:22:03.657Z,948.3
2022-08-07T00:23:08.984Z,948.2
2022-08-07T00:24:10.536Z,948.2
2022-08-07T00:25:17.598Z,948.2
2022-08-07T00:27:09.403Z,948.3
2022-08-07T00:28:15.694Z,948.2
2022-08-07T00:29:23.686Z,948.3
2022-08-07T00:30:28.915Z,948.2
2022-08-07T00:31:42.394Z,948.3
2022-08-07T00:32:45.689Z,948.3
2022-08-07T00:33:48.191Z,948.3
2022-08-07T00:34:51.027Z,948.3
2022-08-07T00:35:54.248Z,948.3
2022-08-07T00:36:55.968Z,948.3
2022-08-07T00:37:57.503Z,948.4
2022-08-07T00:39:00.261Z,948.3
2022-08-07T00:40:03.173Z,948.3
2022-08-07T00:41:15.341Z,948.4
2022-08-07T00:42:17.028Z,948.4
2022-08-07T00:44:03.262Z,948.4
2022-08-07T00:45:16.516Z,948.3
2022-08-07T00:46:22.554Z,948.3
2022-08-07T00:48:18.798Z,948.3
2022-08-07T00:50:51.730Z,948.3
2022-08-07T00:52:01.010Z,948.3
2022-08-07T00:53:02.667Z,948.3
2022-08-07T00:54:04.280Z,948.3
2022-08-07T00:55:11.156Z,948.3
2022-08-07T00:56:18.943Z,948.3
2022-08-07T00:57:22.846Z,948.4
2022-08-07T00:58:26.600Z,948.4
2022-08-07T00:59:36.339Z,948.4
2022-08-07T01:00:54.507Z,948.4
2022-08-07T01:01:58.442Z,948.4
2022-08-07T01:03:01.381Z,948.4
2022-08-07T01:04:08.457Z,948.4
2022-08-07T01:05:24.797Z,948.3
2022-08-07T01:06:26.371Z,948.4
2022-08-07T01:07:31.627Z,948.3
2022-08-07T01:08:35.942Z,948.3
2022-08-07T01:10:12.783Z,948.4
2022-08-07T01:12:31.188Z,948.4
2022-08-07T01:13:35.452Z,948.4
2022-08-07T01:14:37.591Z,948.4
2022-08-07T01:16:06.372Z,948.4
2022-08-07T01:17:07.896Z,948.5
2022-08-07T01:18:10.070Z,948.5
2022-08-07T01:19:20.120Z,948.5
2022-08-07T01:20:31.701Z,948.5
2022-08-07T01:21:38.455Z,948.4
2022-08-07T01:23:13.020Z,948.5
2022-08-07T01:24:22.549Z,948.4
2022-08-07T01:25:56.716Z,948.4
2022-08-07T01:26:58.580Z,948.4
2022-08-07T01:28:00.116Z,948.4
2022-08-07T01:29:01.649Z,948.5
2022-08-07T01:30:05.670Z,948.5
2022-08-07T01:31:17.819Z,948.5
2022-08-07T01:32:23.389Z,948.5
2022-08-07T01:33:57.895Z,948.5
2022-08-07T01:34:59.475Z,948.4
2022-08-07T01:36:10.091Z,948.4
2022-08-07T01:37:26.376Z,948.5
2022-08-07T01:38:36.527Z,948.5
2022-08-07T01:39:48.152Z,948.5
2022-08-07T01:40:52.805Z,948.5
2022-08-07T01:42:59.000Z,948.5
2022-08-07T01:44:01.968Z,948.5
2022-08-07T01:45:03.704Z,948.5
2022-08-07T01:46:05.371Z,948.5
2022-08-07T01:48:30.985Z,948.5
2022-08-07T01:49:33.427Z,948.6
2022-08-07T01:50:35.046Z,948.7
2022-08-07T01:52:06.922Z,948.7
2022-08-07T01:54:12.899Z,948.8
2022-08-07T01:55:38.745Z,948.9
2022-08-07T01:56:41.356Z,948.9
2022-08-07T01:58:33.246Z,949
2022-08-07T01:59:45.345Z,949.2
2022-08-07T02:00:50.474Z,949.3
2022-08-07T02:02:06.087Z,949.4
2022-08-07T02:03:49.165Z,949.3
2022-08-07T02:04:57.717Z,949.4
2022-08-07T02:06:01.493Z,949.4
2022-08-07T02:07:03.987Z,949.3
2022-08-07T02:08:09.095Z,949.3
2022-08-07T02:09:54.730Z,949.4
2022-08-07T02:11:03.699Z,949.4
2022-08-07T02:12:06.362Z,949.3
2022-08-07T02:13:08.111Z,949.4
2022-08-07T02:14:41.383Z,949.4
2022-08-07T02:15:42.935Z,949.6
2022-08-07T02:16:44.589Z,949.6
2022-08-07T02:17:52.030Z,949.6
2022-08-07T02:18:53.669Z,949.6
2022-08-07T02:20:19.997Z,949.6
2022-08-07T02:21:26.084Z,949.6
2022-08-07T02:22:57.023Z,949.5
2022-08-07T02:24:01.940Z,949.5
2022-08-07T02:25:18.531Z,949.5
2022-08-07T02:26:36.445Z,949.5
2022-08-07T02:27:44.332Z,949.5
2022-08-07T02:28:56.525Z,949.5
2022-08-07T02:30:06.426Z,949.5
2022-08-07T02:31:29.735Z,949.5
2022-08-07T02:32:39.647Z,949.4
2022-08-07T02:34:18.235Z,949.4
2022-08-07T02:36:33.146Z,949.3
2022-08-07T02:37:44.396Z,949.2
2022-08-07T02:38:57.417Z,949.1
2022-08-07T02:40:35.535Z,949.1
2022-08-07T02:41:38.532Z,949
2022-08-07T02:42:40.569Z,949
2022-08-07T02:43:49.189Z,948.9
2022-08-07T02:44:53.055Z,948.9
2022-08-07T02:46:03.836Z,948.9
2022-08-07T02:47:05.479Z,948.9
2022-08-07T02:48:15.953Z,948.9
2022-08-07T02:50:00.649Z,948.8
2022-08-07T02:51:05.093Z,948.8
2022-08-07T02:52:13.166Z,948.8
2022-08-07T02:53:15.354Z,948.8
2022-08-07T02:54:17.307Z,948.8
2022-08-07T02:56:05.836Z,948.8
2022-08-07T02:57:35.361Z,948.8
2022-08-07T02:58:47.724Z,948.7
2022-08-07T03:00:10.517Z,948.8
2022-08-07T03:01:39.288Z,948.8
2022-08-07T03:02:56.550Z,948.7
2022-08-07T03:04:12.716Z,948.7
2022-08-07T03:05:24.780Z,948.7
2022-08-07T03:06:35.175Z,948.7
2022-08-07T03:08:10.680Z,948.7
2022-08-07T03:09:13.111Z,948.7
2022-08-07T03:10:14.842Z,948.7
2022-08-07T03:11:16.464Z,948.7
2022-08-07T03:12:31.342Z,948.7
2022-08-07T03:14:01.705Z,948.6
2022-08-07T03:15:08.413Z,948.6
2022-08-07T03:16:12.740Z,948.6
2022-08-07T03:17:14.589Z,948.6
2022-08-07T03:18:34.106Z,948.6
2022-08-07T03:19:38.645Z,948.6
2022-08-07T03:20:44.561Z,948.5
2022-08-07T03:21:51.455Z,948.5
2022-08-07T03:22:53.841Z,948.5
2022-08-07T03:24:28.254Z,948.5
2022-08-07T03:25:41.965Z,948.6
2022-08-07T03:27:00.093Z,948.5
2022-08-07T03:28:40.191Z,948.6
2022-08-07T03:29:51.479Z,948.6
2022-08-07T03:30:54.409Z,948.6
2022-08-07T03:31:56.882Z,948.6
2022-08-07T03:33:03.388Z,948.6
2022-08-07T03:34:22.902Z,948.6
2022-08-07T03:35:50.853Z,948.5
2022-08-07T03:36:54.024Z,948.5
2022-08-07T03:37:55.765Z,948.5
2022-08-07T03:38:57.594Z,948.5
2022-08-07T03:40:17.397Z,948.6
2022-08-07T03:41:51.094Z,948.6
2022-08-07T03:42:55.618Z,948.6
2022-08-07T03:43:57.998Z,948.6
2022-08-07T03:45:03.390Z,948.6
2022-08-07T03:46:18.941Z,948.6
2022-08-07T03:47:23.275Z,948.6
2022-08-07T03:48:29.964Z,948.6
2022-08-07T03:49:32.324Z,948.6
2022-08-07T03:50:35.187Z,948.6
2022-08-07T03:52:02.015Z,948.6
2022-08-07T03:53:07.051Z,948.7
2022-08-07T03:55:06.440Z,948.7
2022-08-07T03:56:14.115Z,948.7
2022-08-07T03:59:13.525Z,948.7
2022-08-07T04:00:15.983Z,948.8
2022-08-07T04:01:18.785Z,948.7
2022-08-07T04:02:25.129Z,948.8
2022-08-07T04:03:26.804Z,948.8
2022-08-07T04:04:33.143Z,948.8
2022-08-07T04:05:42.662Z,948.9
2022-08-07T04:06:52.075Z,948.9
2022-08-07T04:07:53.733Z,948.8
2022-08-07T04:08:55.795Z,948.8
2022-08-07T04:10:03.148Z,948.8
2022-08-07T04:12:29.283Z,948.9
2022-08-07T04:14:43.989Z,948.9
2022-08-07T04:15:50.822Z,948.9
2022-08-07T04:17:03.301Z,948.9
2022-08-07T04:19:12.544Z,948.9
2022-08-07T04:20:17.590Z,948.9
2022-08-07T04:21:19.144Z,948.9
2022-08-07T04:22:23.301Z,949
2022-08-07T04:24:08.074Z,949
2022-08-07T04:25:13.206Z,948.9
2022-08-07T04:26:22.179Z,949
2022-08-07T04:27:59.092Z,949
2022-08-07T04:29:03.585Z,949
2022-08-07T04:30:43.347Z,949
2022-08-07T04:32:11.183Z,948.9
2022-08-07T04:33:16.210Z,949
2022-08-07T04:34:37.750Z,949
2022-08-07T04:35:42.041Z,949
2022-08-07T04:36:49.713Z,949.1
2022-08-07T04:38:07.925Z,949.1
2022-08-07T04:39:10.953Z,949.1
2022-08-07T04:40:14.638Z,949.1
2022-08-07T04:41:19.647Z,949.1
2022-08-07T04:42:29.170Z,949.1
2022-08-07T04:44:19.392Z,949.1
2022-08-07T04:46:02.233Z,949.1
2022-08-07T04:48:11.068Z,949.1
2022-08-07T04:49:25.840Z,949.1
2022-08-07T04:50:27.807Z,949.1
2022-08-07T04:51:32.514Z,949.1
2022-08-07T04:52:34.173Z,949.1
2022-08-07T04:54:07.967Z,949.2
2022-08-07T04:58:47.315Z,949.1
2022-08-07T05:01:18.528Z,949.2
2022-08-07T05:02:22.260Z,949.2
2022-08-07T05:04:17.188Z,949.2
2022-08-07T05:05:57.799Z,949.2
2022-08-07T05:07:22.617Z,949.2
2022-08-07T05:09:02.750Z,949.3
2022-08-07T05:10:05.825Z,949.3
2022-08-07T05:11:09.391Z,949.3
2022-08-07T05:12:30.318Z,949.3
2022-08-07T05:15:05.305Z,949.4
2022-08-07T05:16:11.345Z,949.4
2022-08-07T05:17:55.580Z,949.4
2022-08-07T05:18:59.318Z,949.4
2022-08-07T05:20:10.381Z,949.4
2022-08-07T05:21:15.101Z,949.4
2022-08-07T05:22:28.213Z,949.5
2022-08-07T05:23:35.771Z,949.5
2022-08-07T05:24:41.030Z,949.5
2022-08-07T05:26:24.626Z,949.5
2022-08-07T05:28:26.641Z,949.5
2022-08-07T05:29:52.429Z,949.5
2022-08-07T05:30:57.067Z,949.5
2022-08-07T05:32:00.096Z,949.5
2022-08-07T05:33:04.968Z,949.5
2022-08-07T05:34:12.402Z,949.5
2022-08-07T05:35:14.600Z,949.5
2022-08-07T05:36:35.934Z,949.5
2022-08-07T05:37:42.729Z,949.5
2022-08-07T05:40:20.499Z,949.5
2022-08-07T05:41:23.478Z,949.5
2022-08-07T05:42:39.155Z,949.5
2022-08-07T05:44:12.957Z,949.5
2022-08-07T05:45:48.537Z,949.5
2022-08-07T05:46:51.827Z,949.5
2022-08-07T05:48:03.823Z,949.6
2022-08-07T05:49:14.596Z,949.6
2022-08-07T05:50:19.189Z,949.6
2022-08-07T05:51:21.469Z,949.6
2022-08-07T05:52:33.191Z,949.7
2022-08-07T05:54:58.520Z,949.7
2022-08-07T05:56:16.364Z,949.7
2022-08-07T05:57:20.201Z,949.7
2022-08-07T05:58:39.150Z,949.7
2022-08-07T05:59:58.577Z,949.7
2022-08-07T06:01:10.671Z,949.7
2022-08-07T06:02:12.835Z,949.7
2022-08-07T06:03:22.578Z,949.8
2022-08-07T06:04:30.710Z,949.8
2022-08-07T06:05:32.297Z,949.8
2022-08-07T06:06:33.858Z,949.8
2022-08-07T06:08:32.329Z,949.8
2022-08-07T06:10:15.210Z,949.8
2022-08-07T06:11:17.288Z,949.8
2022-08-07T06:12:33.082Z,949.8
2022-08-07T06:14:28.609Z,949.8
2022-08-07T06:15:43.186Z,949.8
2022-08-07T06:16:57.195Z,949.8
2022-08-07T06:17:59.630Z,949.8
2022-08-07T06:19:01.170Z,949.7
2022-08-07T06:20:05.780Z,949.8
2022-08-07T06:22:27.537Z,949.8
2022-08-07T06:24:57.789Z,949.8
2022-08-07T06:26:04.713Z,949.8
2022-08-07T06:27:43.850Z,949.8
2022-08-07T06:29:06.866Z,949.8
2022-08-07T06:30:45.679Z,949.8
2022-08-07T06:31:54.650Z,949.8
2022-08-07T06:32:56.252Z,949.8
2022-08-07T06:33:58.802Z,949.8
2022-08-07T06:35:00.979Z,949.8
2022-08-07T06:36:35.987Z,949.8
2022-08-07T06:37:44.941Z,949.8
2022-08-07T06:40:21.703Z,949.8
2022-08-07T06:42:03.947Z,949.8
2022-08-07T06:43:23.754Z,949.8
2022-08-07T06:44:33.976Z,949.8
2022-08-07T06:45:45.058Z,949.8
2022-08-07T06:47:15.779Z,949.8
2022-08-07T06:48:25.733Z,949.8
2022-08-07T06:49:28.310Z,949.8
2022-08-07T06:50:30.826Z,949.8
2022-08-07T06:51:34.248Z,949.8
2022-08-07T06:52:36.914Z,949.8
2022-08-07T06:56:01.716Z,949.8
2022-08-07T06:57:03.892Z,949.8
2022-08-07T06:58:10.739Z,949.8
2022-08-07T07:00:18.683Z,949.8
2022-08-07T07:01:20.817Z,949.8
2022-08-07T07:03:08.583Z,949.8
2022-08-07T07:04:34.294Z,949.8
2022-08-07T07:06:11.513Z,949.8
2022-08-07T07:08:09.971Z,949.8
2022-08-07T07:09:32.010Z,949.8
2022-08-07T07:10:54.756Z,949.8
2022-08-07T07:12:24.759Z,949.8
2022-08-07T07:14:02.747Z,949.8
2022-08-07T07:15:32.656Z,949.9
2022-08-07T07:16:53.817Z,949.8
2022-08-07T07:17:58.463Z,949.8
2022-08-07T07:19:58.467Z,949.8
2022-08-07T07:21:19.251Z,949.8
2022-08-07T07:24:12.463Z,949.8
2022-08-07T07:26:37.874Z,949.7
2022-08-07T07:28:42.269Z,949.7
2022-08-07T07:31:17.470Z,949.7
2022-08-07T07:32:23.978Z,949.8
2022-08-07T07:33:31.152Z,949.8
2022-08-07T07:34:32.684Z,949.8
2022-08-07T07:36:17.219Z,949.8
2022-08-07T07:38:04.753Z,949.8
2022-08-07T07:39:08.418Z,949.8
2022-08-07T07:40:16.009Z,949.8
2022-08-07T07:41:19.036Z,949.9
2022-08-07T07:42:33.434Z,949.9
2022-08-07T07:44:26.757Z,949.9
2022-08-07T07:47:13.643Z,949.9
2022-08-07T07:48:37.809Z,950
2022-08-07T07:50:40.416Z,949.9
2022-08-07T07:52:00.051Z,950
2022-08-07T07:53:01.999Z,950
2022-08-07T07:54:03.536Z,949.9
2022-08-07T07:55:06.027Z,950
2022-08-07T07:56:07.671Z,950
2022-08-07T07:57:12.163Z,950
2022-08-07T07:58:13.810Z,950
2022-08-07T07:59:54.168Z,950
2022-08-07T08:00:56.010Z,950
2022-08-07T08:02:11.148Z,949.9
2022-08-07T08:04:12.296Z,949.9
2022-08-07T08:05:15.511Z,949.9
2022-08-07T08:06:17.167Z,949.9
2022-08-07T08:08:00.125Z,949.9
2022-08-07T08:09:03.447Z,949.9
2022-08-07T08:10:06.153Z,949.9
2022-08-07T08:11:18.164Z,949.9
2022-08-07T08:13:04.254Z,949.9
2022-08-07T08:14:26.676Z,949.9
2022-08-07T08:16:01.003Z,949.9
2022-08-07T08:18:18.607Z,949.9
2022-08-07T08:20:31.717Z,949.9
2022-08-07T08:22:04.113Z,949.9
2022-08-07T08:23:11.182Z,949.9
2022-08-07T08:24:46.565Z,949.9
2022-08-07T08:25:50.149Z,950
2022-08-07T08:26:53.244Z,950
2022-08-07T08:28:04.319Z,949.9
2022-08-07T08:29:08.692Z,950
2022-08-07T08:30:19.869Z,950
2022-08-07T08:32:24.993Z,949.9
2022-08-07T08:33:57.784Z,949.9
2022-08-07T08:34:59.623Z,949.9
2022-08-07T08:36:02.187Z,950
2022-08-07T08:38:03.689Z,950
2022-08-07T08:39:07.060Z,950
2022-08-07T08:40:28.507Z,950
2022-08-07T08:41:59.674Z,950
2022-08-07T08:43:02.467Z,950.1
2022-08-07T08:44:04.005Z,950.1
2022-08-07T08:45:05.749Z,950.1
2022-08-07T08:46:22.228Z,950.1
2022-08-07T08:47:27.355Z,950.1
2022-08-07T08:48:40.158Z,950.2
2022-08-07T08:50:06.149Z,950.1
2022-08-07T08:52:13.541Z,950.1
2022-08-07T08:53:20.533Z,950.1
2022-08-07T08:54:25.145Z,950.1
2022-08-07T08:55:59.410Z,950.1
2022-08-07T08:57:03.151Z,950.1
2022-08-07T08:58:20.478Z,950
2022-08-07T08:59:48.632Z,950
2022-08-07T09:00:53.063Z,950
2022-08-07T09:02:00.494Z,950
2022-08-07T09:03:08.530Z,950
2022-08-07T09:04:13.750Z,950
2022-08-07T09:05:15.829Z,950
2022-08-07T09:06:18.473Z,950
2022-08-07T09:07:25.439Z,949.9
2022-08-07T09:08:29.346Z,949.9
2022-08-07T09:09:37.130Z,949.9
2022-08-07T09:10:45.334Z,949.9
2022-08-07T09:12:20.403Z,949.9
2022-08-07T09:13:38.485Z,949.9
2022-08-07T09:14:40.120Z,949.9
2022-08-07T09:16:30.917Z,949.9
2022-08-07T09:18:13.444Z,949.9
2022-08-07T09:19:55.732Z,950
2022-08-07T09:21:01.580Z,949.9
2022-08-07T09:25:06.166Z,949.8
2022-08-07T09:26:21.679Z,949.9
2022-08-07T09:27:30.564Z,949.8
2022-08-07T09:30:09.199Z,949.8
2022-08-07T09:31:15.774Z,949.8
2022-08-07T09:32:21.410Z,949.7
2022-08-07T09:33:58.173Z,949.7
2022-08-07T09:36:06.427Z,949.7
2022-08-07T09:37:11.453Z,949.7
2022-08-07T09:38:13.569Z,949.7
2022-08-07T09:39:59.685Z,949.7
2022-08-07T09:41:03.780Z,949.7
2022-08-07T09:42:22.830Z,949.7
2022-08-07T09:44:32.774Z,949.7
2022-08-07T09:50:18.726Z,949.6
2022-08-07T09:52:35.405Z,949.6
2022-08-07T09:53:59.369Z,949.6
2022-08-07T09:55:04.940Z,949.6
2022-08-07T09:56:39.366Z,949.6
2022-08-07T09:57:47.592Z,949.6
2022-08-07T09:58:51.561Z,949.6
2022-08-07T10:00:03.484Z,949.6
2022-08-07T10:01:54.432Z,949.5
2022-08-07T10:02:56.948Z,949.5
2022-08-07T10:04:15.926Z,949.5
2022-08-07T10:06:07.692Z,949.5
2022-08-07T10:07:31.963Z,949.5
2022-08-07T10:08:55.166Z,949.5
2022-08-07T10:10:03.310Z,949.5
2022-08-07T10:12:18.311Z,949.6
2022-08-07T10:14:02.654Z,949.5
2022-08-07T10:15:06.667Z,949.5
2022-08-07T10:16:10.143Z,949.5
2022-08-07T10:17:17.315Z,949.5
2022-08-07T10:18:27.062Z,949.5
2022-08-07T10:19:30.557Z,949.5
2022-08-07T10:20:44.779Z,949.5
2022-08-07T10:22:17.568Z,949.5
2022-08-07T10:24:10.296Z,949.4
2022-08-07T10:25:11.981Z,949.4
2022-08-07T10:26:25.020Z,949.4
2022-08-07T10:27:47.509Z,949.4
2022-08-07T10:28:54.424Z,949.3
2022-08-07T10:29:56.249Z,949.3
2022-08-07T10:31:00.324Z,949.3
2022-08-07T10:32:54.390Z,949.4
2022-08-07T10:34:18.593Z,949.5
2022-08-07T10:36:12.570Z,949.5
2022-08-07T10:37:18.490Z,949.4
2022-08-07T10:39:14.324Z,949.5
2022-08-07T10:40:24.385Z,949.6
2022-08-07T10:42:09.586Z,949.5
2022-08-07T10:43:37.729Z,949.6
2022-08-07T10:44:45.864Z,949.5
2022-08-07T10:45:58.979Z,949.6
2022-08-07T10:47:01.032Z,949.6
2022-08-07T10:48:07.623Z,949.6
2022-08-07T10:49:11.663Z,949.6
2022-08-07T10:50:15.695Z,949.6
2022-08-07T10:52:14.064Z,949.5
2022-08-07T10:53:24.116Z,949.5
2022-08-07T10:54:27.928Z,949.5
2022-08-07T10:55:39.285Z,949.5
2022-08-07T10:56:42.889Z,949.6
2022-08-07T10:57:56.703Z,949.5
2022-08-07T10:59:00.497Z,949.5
2022-08-07T11:00:02.035Z,949.5
2022-08-07T11:01:15.314Z,949.5
2022-08-07T11:02:38.237Z,949.4
2022-08-07T11:04:31.107Z,949.5
2022-08-07T11:05:51.536Z,949.5
2022-08-07T11:06:53.203Z,949.5
2022-08-07T11:08:03.849Z,949.5
2022-08-07T11:10:10.743Z,949.5
2022-08-07T11:11:12.972Z,949.6
2022-08-07T11:12:35.568Z,949.5
2022-08-07T11:15:01.186Z,949.5
2022-08-07T11:16:07.681Z,949.6
2022-08-07T11:17:12.731Z,949.6
2022-08-07T11:18:27.667Z,949.6
2022-08-07T11:19:33.713Z,949.6
2022-08-07T11:20:36.297Z,949.5
2022-08-07T11:21:43.388Z,949.5
2022-08-07T11:22:46.917Z,949.5
2022-08-07T11:23:50.687Z,949.5
2022-08-07T11:24:52.374Z,949.4
2022-08-07T11:25:54.232Z,949.4
2022-08-07T11:26:56.098Z,949.4
2022-08-07T11:28:05.487Z,949.4
2022-08-07T11:29:51.000Z,949.4
2022-08-07T11:31:23.449Z,949.5
2022-08-07T11:32:31.254Z,949.5
2022-08-07T11:34:00.960Z,949.5
2022-08-07T11:35:02.897Z,949.5
2022-08-07T11:36:10.788Z,949.5
2022-08-07T11:37:12.534Z,949.5
2022-08-07T11:38:21.788Z,949.4
2022-08-07T11:40:04.134Z,949.4
2022-08-07T11:41:08.055Z,949.4
2022-08-07T11:42:19.429Z,949.3
2022-08-07T11:44:14.437Z,949.3
2022-08-07T11:45:36.527Z,949.3
2022-08-07T11:46:38.416Z,949.3
2022-08-07T11:48:09.585Z,949.4
2022-08-07T11:50:33.605Z,949.4
2022-08-07T11:51:47.008Z,949.5
2022-08-07T11:52:51.651Z,949.5
2022-08-07T11:54:10.060Z,949.4
2022-08-07T11:56:27.890Z,949.5
2022-08-07T11:58:02.108Z,949.5
2022-08-07T12:00:19.468Z,949.5
2022-08-07T12:02:01.692Z,949.5
2022-08-07T12:03:04.281Z,949.5
2022-08-07T12:04:06.299Z,949.5
2022-08-07T12:05:47.555Z,949.5
2022-08-07T12:07:18.944Z,949.4
2022-08-07T12:08:35.478Z,949.5
2022-08-07T12:09:41.451Z,949.5
2022-08-07T12:10:43.031Z,949.5
2022-08-07T12:12:12.454Z,949.5
2022-08-07T12:13:37.331Z,949.5
2022-08-07T12:15:01.920Z,949.6
2022-08-07T12:16:09.493Z,949.5
2022-08-07T12:17:22.231Z,949.6
2022-08-07T12:18:30.811Z,949.5
2022-08-07T12:20:14.183Z,949.5
2022-08-07T12:22:58.742Z,949.4
2022-08-07T12:24:40.283Z,949.3
2022-08-07T12:26:35.530Z,949.3
2022-08-07T12:28:11.641Z,949.3
2022-08-07T12:29:15.027Z,949.3
2022-08-07T12:30:23.955Z,949.3
2022-08-07T12:32:05.135Z,949.2
2022-08-07T12:34:01.573Z,949.2
2022-08-07T12:35:13.952Z,949.2
2022-08-07T12:36:16.421Z,949.2
2022-08-07T12:38:16.901Z,949.1
2022-08-07T12:39:52.782Z,949.1
2022-08-07T12:41:02.355Z,949.1
2022-08-07T12:42:07.549Z,949.1
2022-08-07T12:43:10.529Z,949.1
2022-08-07T12:44:17.709Z,949.1
2022-08-07T12:45:19.437Z,949.1
2022-08-07T12:46:34.919Z,949.1
2022-08-07T12:47:41.085Z,949.1
2022-08-07T12:48:55.413Z,949.2
2022-08-07T12:50:49.254Z,949.1
2022-08-07T12:52:27.733Z,949.1
2022-08-07T12:54:41.230Z,949.1
2022-08-07T12:56:09.592Z,949.1
2022-08-07T12:57:20.165Z,949.1
2022-08-07T12:58:35.927Z,949
2022-08-07T12:59:56.111Z,949.1
2022-08-07T13:01:00.424Z,949.1
2022-08-07T13:02:13.310Z,949.1
2022-08-07T13:04:02.672Z,949.1
2022-08-07T13:06:27.713Z,949.1
2022-08-07T13:08:19.844Z,949.1
2022-08-07T13:10:45.749Z,949
2022-08-07T13:12:13.324Z,949.1
2022-08-07T13:13:50.591Z,949.1
2022-08-07T13:14:57.016Z,949
2022-08-07T13:15:59.707Z,949
2022-08-07T13:17:01.438Z,949
2022-08-07T13:18:03.609Z,949
2022-08-07T13:19:46.410Z,949
2022-08-07T13:20:56.153Z,949
2022-08-07T13:22:27.951Z,949
2022-08-07T13:24:05.172Z,948.9
2022-08-07T13:25:07.333Z,948.9
2022-08-07T13:26:19.963Z,948.9
2022-08-07T13:28:18.241Z,948.8
2022-08-07T13:29:35.307Z,948.8
2022-08-07T13:31:06.319Z,948.9
2022-08-07T13:32:37.776Z,948.8
2022-08-07T13:34:36.133Z,948.8
2022-08-07T13:36:05.945Z,948.9
2022-08-07T13:37:30.874Z,948.9
2022-08-07T13:38:34.063Z,948.8
2022-08-07T13:40:43.161Z,948.8
2022-08-07T13:41:48.290Z,948.9
2022-08-07T13:42:50.373Z,948.9
2022-08-07T13:43:56.315Z,948.8
2022-08-07T13:46:28.205Z,948.9
2022-08-07T13:48:33.870Z,948.8
2022-08-07T13:51:02.112Z,948.9
2022-08-07T13:52:41.058Z,948.9
2022-08-07T13:54:03.620Z,948.8
2022-08-07T13:55:06.786Z,948.9
2022-08-07T13:56:18.771Z,948.9
2022-08-07T13:57:24.741Z,949
2022-08-07T13:58:32.235Z,949
2022-08-07T13:59:40.122Z,949.1
2022-08-07T14:00:55.095Z,949.1
2022-08-07T14:02:05.633Z,949.1
2022-08-07T14:03:07.175Z,949.2
2022-08-07T14:04:08.951Z,949.2
2022-08-07T14:05:11.210Z,949.2
2022-08-07T14:06:15.860Z,949.3
2022-08-07T14:07:19.313Z,949.2
2022-08-07T14:08:20.846Z,949.3
2022-08-07T14:10:28.512Z,949.3
2022-08-07T14:12:10.575Z,949.2
2022-08-07T14:13:18.133Z,949.2
2022-08-07T14:14:21.816Z,949.2
2022-08-07T14:15:24.275Z,949.2
2022-08-07T14:16:31.736Z,949.2
2022-08-07T14:18:31.066Z,949.3
2022-08-07T14:20:54.965Z,949.3
2022-08-07T14:22:15.710Z,949.3
2022-08-07T14:24:04.045Z,949.3
2022-08-07T14:25:11.122Z,949.2
2022-08-07T14:26:32.322Z,949.3
2022-08-07T14:29:01.103Z,949.3
2022-08-07T14:31:09.227Z,949.3
2022-08-07T14:32:13.602Z,949.3
2022-08-07T14:33:15.389Z,949.3
2022-08-07T14:34:30.927Z,949.2
2022-08-07T15:05:32.770Z,949.3
2022-08-07T15:06:37.208Z,949.1
2022-08-07T15:53:05.261Z,949
2022-08-07T15:54:12.544Z,949.1
2022-08-07T15:55:14.905Z,949.1
2022-08-07T15:56:16.567Z,949.1
2022-08-07T15:57:49.535Z,949.1
2022-08-07T15:58:53.193Z,949.1
2022-08-07T15:59:59.536Z,949.2
2022-08-07T16:01:08.937Z,949.2
2022-08-07T16:02:15.959Z,949.2
2022-08-07T16:03:58.632Z,949.2
2022-08-07T16:05:01.293Z,949.2
2022-08-07T16:06:03.015Z,949.2
2022-08-07T16:08:38.107Z,949.2
2022-08-07T16:09:42.757Z,949.1
2022-08-07T16:10:49.208Z,949.2
2022-08-07T16:11:54.639Z,949.1
2022-08-07T16:13:58.119Z,949.1
2022-08-07T16:15:06.097Z,949.2
2022-08-07T16:16:50.087Z,949.2
2022-08-07T16:18:04.202Z,949.2
2022-08-07T16:19:10.149Z,949.2
2022-08-07T16:20:37.087Z,949.2
2022-08-07T16:22:31.724Z,949.2
2022-08-07T16:23:59.122Z,949.2
2022-08-07T16:25:00.884Z,949.2
2022-08-07T16:26:08.253Z,949.2
2022-08-07T16:27:20.990Z,949.2
2022-08-07T16:30:32.536Z,949.2
2022-08-07T16:32:00.793Z,949.2
2022-08-07T16:34:12.483Z,949.2
2022-08-07T16:36:03.026Z,949.2
2022-08-07T16:38:11.405Z,949.2
2022-08-07T16:39:49.652Z,949.2
2022-08-07T16:41:04.850Z,949.2
2022-08-07T16:42:09.100Z,949.2
2022-08-07T16:43:11.243Z,949.2
2022-08-07T16:46:21.711Z,949.3
2022-08-07T16:48:41.618Z,949.3
2022-08-07T16:52:55.498Z,949.3
2022-08-07T16:54:34.872Z,949.4
2022-08-07T16:55:48.356Z,949.3
2022-08-07T16:56:54.036Z,949.4
2022-08-07T16:58:04.415Z,949.4
2022-08-07T16:59:18.055Z,949.4
2022-08-07T17:00:31.418Z,949.3
2022-08-07T17:01:35.289Z,949.3
2022-08-07T17:03:06.453Z,949.4
2022-08-07T17:04:14.241Z,949.4
2022-08-07T17:06:39.927Z,949.4
2022-08-07T17:07:59.420Z,949.4
2022-08-07T17:10:08.991Z,949.4
2022-08-07T17:12:42.251Z,949.5
2022-08-07T17:14:22.612Z,949.5
2022-08-07T17:15:51.833Z,949.6
2022-08-07T17:16:57.226Z,949.6
2022-08-07T17:17:59.137Z,949.7
2022-08-07T17:19:04.829Z,949.7
2022-08-07T17:20:31.119Z,949.7
2022-08-07T17:21:52.551Z,949.8
2022-08-07T17:22:56.978Z,949.8
2022-08-07T17:24:01.066Z,949.8
2022-08-07T17:25:02.830Z,949.8
2022-08-07T17:26:04.712Z,949.8
2022-08-07T17:27:51.658Z,949.8
2022-08-07T17:28:53.745Z,949.8
2022-08-07T17:30:27.283Z,949.8
2022-08-07T17:31:29.987Z,949.8
2022-08-07T17:32:53.704Z,949.8
2022-08-07T17:35:02.823Z,949.8
2022-08-07T17:38:09.774Z,949.8
2022-08-07T17:40:11.129Z,949.8
2022-08-07T17:42:07.454Z,949.8
2022-08-07T17:43:19.024Z,949.9
2022-08-07T17:45:15.374Z,949.9
2022-08-07T17:46:18.619Z,949.9
2022-08-07T17:47:43.309Z,950
2022-08-07T17:48:44.969Z,950
2022-08-07T17:49:49.565Z,950
2022-08-07T17:50:51.315Z,950
2022-08-07T17:52:04.768Z,950.1
2022-08-07T17:54:11.275Z,950
2022-08-07T17:56:06.499Z,950.1
2022-08-07T17:57:19.821Z,950.1
2022-08-07T17:58:31.322Z,950.1
2022-08-07T17:59:36.430Z,950.2
2022-08-07T18:00:50.028Z,950.2
2022-08-07T18:01:57.569Z,950.2
2022-08-07T18:03:09.723Z,950.2
2022-08-07T18:04:35.006Z,950.2
2022-08-07T18:06:11.179Z,950.3
2022-08-07T18:07:45.218Z,950.2
2022-08-07T18:09:06.451Z,950.3
2022-08-07T18:10:33.529Z,950.3
2022-08-07T18:12:30.833Z,950.3
2022-08-07T18:13:41.741Z,950.3
2022-08-07T18:14:46.868Z,950.3
2022-08-07T18:15:54.153Z,950.4
2022-08-07T18:17:02.085Z,950.4
2022-08-07T18:21:55.010Z,950.5
2022-08-07T18:23:57.336Z,950.6
2022-08-07T18:25:01.647Z,950.6
2022-08-07T18:26:42.956Z,950.5
2022-08-07T18:27:45.965Z,950.6
2022-08-07T18:28:59.356Z,950.6
2022-08-07T18:30:37.073Z,950.6
2022-08-07T18:31:51.107Z,950.6
2022-08-07T18:32:52.805Z,950.6
2022-08-07T18:33:56.215Z,950.6
2022-08-07T18:35:02.236Z,950.6
2022-08-07T18:36:08.414Z,950.6
2022-08-07T18:37:10.316Z,950.6
2022-08-07T18:40:18.153Z,950.6
2022-08-07T18:41:58.605Z,950.7
2022-08-07T18:43:08.359Z,950.7
2022-08-07T18:44:12.995Z,950.7
2022-08-07T18:46:27.775Z,950.7
2022-08-07T18:47:45.969Z,950.7
2022-08-07T18:50:46.790Z,950.7
2022-08-07T18:52:57.799Z,950.8
2022-08-07T18:54:31.783Z,950.8
2022-08-07T18:55:57.902Z,950.8
2022-08-07T18:57:40.577Z,950.9
2022-08-07T18:58:52.390Z,951
2022-08-07T19:00:04.689Z,951
2022-08-07T19:02:42.881Z,951.1
2022-08-07T19:03:52.370Z,951.2
2022-08-07T19:05:18.071Z,951.2
2022-08-07T19:06:20.950Z,951.2
2022-08-07T19:07:57.181Z,951.2
2022-08-07T19:09:59.151Z,951.3
2022-08-07T19:11:34.759Z,951.3
2022-08-07T19:13:09.989Z,951.2
2022-08-07T19:14:26.697Z,951.2
2022-08-07T19:17:11.739Z,951.3
2022-08-07T19:19:01.205Z,951.2
2022-08-07T19:20:02.791Z,951.2